createdAt,value
2022-09-12T00:01:11.878Z,46.09
2022-09-12T00:03:40.071Z,46.13
2022-09-12T00:06:12.391Z,46.02
2022-09-12T00:08:41.761Z,46.13
2022-09-12T00:11:10.631Z,46.34
2022-09-12T00:13:41.630Z,46.02
2022-09-12T00:16:15.277Z,46.27
2022-09-12T00:18:44.291Z,46.21
2022-09-12T00:21:12.272Z,46.28
2022-09-12T00:23:41.607Z,46.18
2022-09-12T00:26:09.533Z,46.28
2022-09-12T00:28:38.248Z,46.19
2022-09-12T00:31:06.429Z,46.29
2022-09-12T00:33:34.387Z,46.11
2022-09-12T00:36:05.680Z,46.15
2022-09-12T00:38:33.688Z,46.20
2022-09-12T00:41:03.053Z,46.20
2022-09-12T00:43:38.592Z,46.27
2022-09-12T00:46:08.643Z,46.34
2022-09-12T00:48:38.440Z,46.51
2022-09-12T00:51:06.556Z,46.39
2022-09-12T00:53:34.484Z,46.40
2022-09-12T00:56:04.068Z,46.45
2022-09-12T00:58:34.160Z,46.33
2022-09-12T01:01:02.263Z,46.52
2022-09-12T01:03:30.264Z,46.57
2022-09-12T01:06:02.317Z,46.66
2022-09-12T01:08:30.225Z,46.68
2022-09-12T01:10:58.214Z,46.52
2022-09-12T01:13:27.524Z,46.56
2022-09-12T01:15:55.887Z,46.69
2022-09-12T01:18:26.666Z,46.71
2022-09-12T01:21:08.072Z,46.66
2022-09-12T01:24:20.517Z,46.63
2022-09-12T01:27:31.336Z,46.82
2022-09-12T01:30:21.015Z,46.60
2022-09-12T01:33:10.744Z,46.54
2022-09-12T01:35:41.530Z,46.65
2022-09-12T01:38:11.821Z,46.85
2022-09-12T01:40:44.046Z,46.64
2022-09-12T01:43:18.902Z,46.65
2022-09-12T01:45:48.642Z,46.81
2022-09-12T01:48:18.240Z,46.81
2022-09-12T01:50:51.739Z,46.71
2022-09-12T01:53:21.520Z,46.61
2022-09-12T01:55:52.480Z,46.79
2022-09-12T01:58:22.023Z,46.95
2022-09-12T02:00:53.217Z,46.87
2022-09-12T02:03:24.145Z,46.80
2022-09-12T02:05:53.475Z,46.88
2022-09-12T02:08:24.350Z,47.01
2022-09-12T02:10:54.176Z,46.98
2022-09-12T02:13:24.513Z,46.86
2022-09-12T02:15:54.812Z,46.96
2022-09-12T02:18:22.718Z,46.75
2022-09-12T02:20:50.675Z,47.00
2022-09-12T02:23:20.625Z,47.14
2022-09-12T02:25:48.814Z,47.05
2022-09-12T02:28:17.828Z,47.08
2022-09-12T02:30:50.186Z,46.90
2022-09-12T02:33:21.824Z,47.27
2022-09-12T02:35:51.317Z,47.17
2022-09-12T02:38:21.336Z,47.13
2022-09-12T02:40:49.304Z,47.24
2022-09-12T02:43:17.217Z,47.08
2022-09-12T02:45:45.115Z,47.07
2022-09-12T02:48:14.872Z,47.07
2022-09-12T02:50:44.149Z,47.11
2022-09-12T02:53:12.128Z,47.10
2022-09-12T02:55:40.810Z,47.19
2022-09-12T02:58:10.936Z,47.01
2022-09-12T03:00:40.868Z,47.21
2022-09-12T03:03:16.690Z,47.11
2022-09-12T03:05:48.042Z,47.12
2022-09-12T03:08:37.764Z,47.04
2022-09-12T03:11:11.223Z,47.22
2022-09-12T03:13:41.955Z,47.05
2022-09-12T03:16:13.744Z,47.00
2022-09-12T03:18:47.227Z,47.00
2022-09-12T03:21:20.312Z,47.06
2022-09-12T03:23:52.478Z,46.93
2022-09-12T03:26:22.623Z,47.00
2022-09-12T03:28:50.547Z,46.98
2022-09-12T03:31:19.288Z,46.98
2022-09-12T03:33:47.248Z,46.97
2022-09-12T03:36:18.220Z,47.02
2022-09-12T03:38:46.201Z,46.84
2022-09-12T03:41:14.615Z,47.02
2022-09-12T03:43:42.530Z,47.03
2022-09-12T03:46:10.507Z,46.92
2022-09-12T03:48:38.494Z,46.84
2022-09-12T03:51:08.053Z,47.00
2022-09-12T03:53:37.420Z,47.15
2022-09-12T03:56:07.460Z,46.86
2022-09-12T03:58:36.269Z,47.01
2022-09-12T04:01:12.209Z,47.06
2022-09-12T04:03:41.045Z,47.02
2022-09-12T04:06:09.184Z,47.04
2022-09-12T04:08:38.512Z,47.02
2022-09-12T04:11:06.930Z,46.96
2022-09-12T04:13:35.509Z,47.00
2022-09-12T04:16:04.574Z,46.90
2022-09-12T04:18:32.502Z,47.25
2022-09-12T04:21:00.473Z,46.74
2022-09-12T04:23:28.369Z,46.94
2022-09-12T04:25:57.834Z,47.05
2022-09-12T04:28:26.059Z,47.06
2022-09-12T04:30:54.077Z,47.19
2022-09-12T04:33:22.056Z,47.25
2022-09-12T04:35:50.391Z,47.14
2022-09-12T04:38:18.324Z,47.12
2022-09-12T04:40:46.187Z,46.93
2022-09-12T04:43:15.657Z,47.09
2022-09-12T04:45:43.668Z,46.79
2022-09-12T04:48:11.609Z,46.84
2022-09-12T04:50:39.562Z,46.82
2022-09-12T04:53:07.488Z,46.92
2022-09-12T04:55:35.667Z,46.89
2022-09-12T04:58:03.686Z,46.93
2022-09-12T05:00:33.001Z,46.95
2022-09-12T05:03:00.891Z,46.91
2022-09-12T05:05:28.785Z,47.03
2022-09-12T05:07:56.669Z,46.83
2022-09-12T05:10:24.605Z,46.82
2022-09-12T05:12:52.701Z,47.00
2022-09-12T05:15:20.649Z,47.04
2022-09-12T05:17:49.920Z,46.96
2022-09-12T05:20:18.088Z,46.85
2022-09-12T05:22:46.035Z,46.84
2022-09-12T05:25:13.927Z,47.00
2022-09-12T05:27:41.849Z,46.99
2022-09-12T05:30:11.376Z,46.83
2022-09-12T05:32:39.317Z,46.74
2022-09-12T05:35:08.879Z,47.08
2022-09-12T05:37:37.391Z,46.78
2022-09-12T05:40:08.626Z,46.94
2022-09-12T05:42:36.880Z,46.88
2022-09-12T05:45:05.899Z,46.88
2022-09-12T05:47:33.973Z,46.76
2022-09-12T05:50:01.939Z,46.73
2022-09-12T05:52:31.239Z,46.84
2022-09-12T05:54:59.185Z,46.70
2022-09-12T05:57:27.079Z,46.68
2022-09-12T05:59:54.989Z,46.59
2022-09-12T06:02:22.947Z,46.75
2022-09-12T06:04:50.946Z,46.70
2022-09-12T06:07:18.834Z,46.78
2022-09-12T06:09:48.183Z,46.81
2022-09-12T06:12:16.091Z,46.88
2022-09-12T06:14:43.937Z,46.50
2022-09-12T06:17:11.869Z,46.62
2022-09-12T06:19:39.753Z,46.76
2022-09-12T06:22:08.043Z,46.66
2022-09-12T06:24:56.049Z,46.96
2022-09-12T06:27:25.844Z,46.56
2022-09-12T06:29:53.812Z,46.64
2022-09-12T06:32:21.776Z,46.82
2022-09-12T06:34:49.839Z,46.83
2022-09-12T06:37:17.793Z,46.82
2022-09-12T06:39:46.951Z,46.95
2022-09-12T06:42:16.464Z,46.72
2022-09-12T06:44:44.775Z,46.70
2022-09-12T06:47:13.225Z,46.75
2022-09-12T06:49:41.155Z,46.95
2022-09-12T06:52:09.259Z,46.66
2022-09-12T06:54:37.134Z,46.74
2022-09-12T06:57:05.281Z,46.58
2022-09-12T06:59:34.545Z,46.85
2022-09-12T07:02:02.607Z,46.85
2022-09-12T07:04:33.402Z,46.59
2022-09-12T07:07:01.399Z,46.91
2022-09-12T07:09:30.743Z,46.86
2022-09-12T07:11:58.662Z,46.79
2022-09-12T07:14:27.137Z,46.65
2022-09-12T07:16:56.636Z,46.91
2022-09-12T07:19:24.835Z,46.74
2022-09-12T07:21:56.586Z,46.82
2022-09-12T07:24:26.607Z,46.73
2022-09-12T07:26:54.604Z,46.65
2022-09-12T07:29:38.181Z,46.73
2022-09-12T07:32:07.903Z,46.84
2022-09-12T07:34:35.940Z,46.79
2022-09-12T07:37:03.920Z,46.89
2022-09-12T07:39:32.425Z,46.92
2022-09-12T07:42:00.492Z,46.72
2022-09-12T07:44:29.092Z,46.71
2022-09-12T07:46:57.103Z,46.64
2022-09-12T07:49:26.431Z,47.04
2022-09-12T07:51:54.470Z,46.74
2022-09-12T07:54:22.808Z,46.82
2022-09-12T07:56:50.814Z,46.64
2022-09-12T07:59:35.323Z,46.77
2022-09-12T08:02:06.902Z,46.68
2022-09-12T08:04:37.115Z,46.41
2022-09-12T08:07:06.588Z,46.45
2022-09-12T08:09:34.496Z,46.46
2022-09-12T08:12:02.914Z,46.57
2022-09-12T08:14:31.003Z,46.52
2022-09-12T08:16:58.933Z,46.33
2022-09-12T08:19:26.865Z,46.57
2022-09-12T08:21:56.265Z,46.35
2022-09-12T08:24:24.954Z,46.41
2022-09-12T08:26:52.925Z,46.45
2022-09-12T08:29:21.453Z,46.38
2022-09-12T08:31:51.870Z,46.46
2022-09-12T08:34:24.829Z,46.23
2022-09-12T08:36:54.270Z,46.22
2022-09-12T08:39:24.675Z,46.25
2022-09-12T08:41:59.167Z,46.24
2022-09-12T08:44:33.333Z,46.17
2022-09-12T08:47:14.285Z,46.40
2022-09-12T08:49:45.720Z,46.31
2022-09-12T08:52:15.198Z,46.20
2022-09-12T08:54:46.123Z,46.43
2022-09-12T08:57:14.391Z,46.03
2022-09-12T08:59:44.847Z,46.25
2022-09-12T09:02:34.447Z,46.27
2022-09-12T09:05:04.815Z,46.05
2022-09-12T09:07:52.432Z,46.15
2022-09-12T09:10:24.608Z,46.20
2022-09-12T09:12:55.656Z,46.16
2022-09-12T09:15:34.704Z,46.03
2022-09-12T09:18:04.234Z,46.09
2022-09-12T09:20:34.100Z,46.07
2022-09-12T09:23:03.542Z,45.83
2022-09-12T09:25:44.122Z,45.83
2022-09-12T09:28:15.623Z,45.88
2022-09-12T09:30:44.505Z,45.50
2022-09-12T09:33:21.247Z,45.89
2022-09-12T09:35:52.923Z,45.62
2022-09-12T09:38:24.899Z,45.48
2022-09-12T09:41:01.462Z,45.56
2022-09-12T09:43:29.571Z,45.65
2022-09-12T09:45:58.364Z,45.57
2022-09-12T09:48:27.843Z,45.86
2022-09-12T09:50:55.779Z,45.38
2022-09-12T09:53:30.783Z,45.31
2022-09-12T09:56:01.689Z,45.73
2022-09-12T09:58:31.289Z,45.65
2022-09-12T10:01:00.697Z,45.59
2022-09-12T10:03:35.822Z,45.13
2022-09-12T10:06:07.228Z,45.08
2022-09-12T10:08:36.522Z,44.98
2022-09-12T10:11:07.351Z,44.97
2022-09-12T10:13:37.951Z,45.00
2022-09-12T10:16:07.120Z,44.84
2022-09-12T10:18:40.092Z,45.13
2022-09-12T10:21:15.477Z,44.90
2022-09-12T10:23:44.080Z,44.68
2022-09-12T10:26:14.381Z,44.75
2022-09-12T10:28:43.949Z,44.74
2022-09-12T10:31:15.067Z,44.46
2022-09-12T10:33:46.476Z,44.37
2022-09-12T10:36:14.503Z,44.72
2022-09-12T10:38:42.434Z,44.63
2022-09-12T10:41:11.213Z,44.88
2022-09-12T10:43:42.324Z,44.67
2022-09-12T10:46:25.125Z,44.76
2022-09-12T10:48:54.081Z,44.71
2022-09-12T10:51:28.753Z,44.96
2022-09-12T10:53:57.578Z,44.92
2022-09-12T10:56:28.022Z,44.89
2022-09-12T10:59:04.639Z,45.20
2022-09-12T11:01:40.489Z,45.15
2022-09-12T11:04:21.637Z,44.97
2022-09-12T11:06:53.894Z,44.81
2022-09-12T11:09:23.669Z,44.82
2022-09-12T11:12:03.350Z,44.71
2022-09-12T11:14:44.981Z,44.32
2022-09-12T11:17:26.939Z,44.48
2022-09-12T11:20:18.848Z,44.34
2022-09-12T11:23:13.819Z,43.98
2022-09-12T11:25:42.410Z,44.15
2022-09-12T11:28:21.183Z,43.97
2022-09-12T11:31:01.154Z,44.08
2022-09-12T11:33:40.850Z,44.13
2022-09-12T11:36:17.415Z,44.14
2022-09-12T11:39:00.446Z,44.25
2022-09-12T11:41:31.510Z,44.28
2022-09-12T11:44:01.385Z,43.84
2022-09-12T11:46:33.073Z,44.28
2022-09-12T11:49:02.393Z,44.35
2022-09-12T11:51:34.356Z,44.16
2022-09-12T11:54:06.921Z,44.16
2022-09-12T11:56:35.805Z,44.34
2022-09-12T11:59:06.253Z,44.05
2022-09-12T12:01:43.880Z,43.51
2022-09-12T12:04:13.548Z,44.02
2022-09-12T12:06:48.583Z,43.76
2022-09-12T12:09:16.517Z,43.72
2022-09-12T12:11:45.598Z,43.54
2022-09-12T12:14:15.891Z,43.66
2022-09-12T12:16:45.162Z,43.43
2022-09-12T12:19:27.499Z,43.20
2022-09-12T12:21:55.421Z,43.33
2022-09-12T12:24:24.151Z,43.14
2022-09-12T12:26:59.848Z,43.06
2022-09-12T12:29:54.637Z,43.09
2022-09-12T12:32:25.709Z,43.29
2022-09-12T12:35:03.109Z,43.05
2022-09-12T12:37:54.347Z,42.99
2022-09-12T12:40:25.211Z,43.09
2022-09-12T12:42:59.743Z,43.23
2022-09-12T12:46:04.213Z,42.84
2022-09-12T12:48:49.552Z,43.15
2022-09-12T12:51:29.213Z,43.05
2022-09-12T12:53:57.119Z,43.13
2022-09-12T12:56:40.106Z,43.18
2022-09-12T12:59:17.522Z,42.96
2022-09-12T13:01:54.336Z,43.00
2022-09-12T13:04:25.931Z,43.00
2022-09-12T13:06:58.888Z,43.02
2022-09-12T13:09:28.431Z,43.00
2022-09-12T13:11:59.064Z,42.81
2022-09-12T13:14:38.135Z,42.66
2022-09-12T13:17:08.081Z,42.75
2022-09-12T13:19:38.970Z,42.70
2022-09-12T13:22:07.727Z,42.56
2022-09-12T13:24:36.727Z,42.67
2022-09-12T13:27:04.748Z,42.59
2022-09-12T13:29:32.724Z,42.64
2022-09-12T13:32:01.615Z,42.35
2022-09-12T13:34:31.381Z,42.60
2022-09-12T13:37:13.342Z,42.30
2022-09-12T13:39:47.737Z,42.35
2022-09-12T13:42:40.360Z,42.13
2022-09-12T13:45:14.281Z,42.24
2022-09-12T13:47:43.286Z,42.60
2022-09-12T13:50:17.818Z,42.29
2022-09-12T13:52:48.548Z,42.46
2022-09-12T13:55:25.127Z,42.58
2022-09-12T13:57:58.180Z,42.46
2022-09-12T14:00:26.265Z,42.51
2022-09-12T14:03:14.249Z,42.49
2022-09-12T14:05:45.419Z,42.41
2022-09-12T14:08:15.353Z,42.38
2022-09-12T14:10:44.227Z,42.37
2022-09-12T14:13:14.347Z,42.32
2022-09-12T14:15:45.346Z,42.42
2022-09-12T14:18:24.999Z,42.01
2022-09-12T14:20:56.987Z,42.26
2022-09-12T14:23:31.052Z,42.15
2022-09-12T14:26:00.116Z,42.13
2022-09-12T14:28:31.287Z,41.86
2022-09-12T14:31:00.630Z,42.13
2022-09-12T14:33:28.757Z,42.20
2022-09-12T14:36:09.748Z,42.10
2022-09-12T14:38:41.389Z,42.10
2022-09-12T14:41:10.181Z,42.02
2022-09-12T14:43:38.979Z,42.30
2022-09-12T14:46:08.234Z,42.20
2022-09-12T14:48:37.487Z,42.12
2022-09-12T14:51:05.464Z,42.06
2022-09-12T14:53:34.140Z,42.38
2022-09-12T14:56:10.271Z,42.14
2022-09-12T14:58:38.264Z,42.25
2022-09-12T15:01:24.807Z,42.20
2022-09-12T15:03:53.859Z,42.26
2022-09-12T15:06:23.980Z,42.16
2022-09-12T15:08:51.946Z,41.94
2022-09-12T15:11:21.233Z,41.99
2022-09-12T15:13:49.174Z,41.95
2022-09-12T15:16:17.152Z,41.81
2022-09-12T15:18:45.282Z,41.86
2022-09-12T15:21:14.088Z,41.90
2022-09-12T15:23:44.369Z,41.71
2022-09-12T15:26:12.978Z,41.62
2022-09-12T15:28:42.264Z,41.79
2022-09-12T15:31:14.189Z,41.65
2022-09-12T15:33:42.424Z,41.75
2022-09-12T15:36:14.796Z,41.81
2022-09-12T15:38:42.746Z,41.74
2022-09-12T15:41:16.346Z,41.65
2022-09-12T15:43:45.779Z,41.88
2022-09-12T15:46:13.876Z,41.97
2022-09-12T15:48:41.894Z,41.93
2022-09-12T15:51:15.231Z,42.05
2022-09-12T15:53:43.721Z,42.12
2022-09-12T15:56:11.725Z,42.18
2022-09-12T15:58:50.010Z,42.08
2022-09-12T16:01:27.083Z,42.07
2022-09-12T16:03:55.080Z,42.43
2022-09-12T16:06:23.564Z,42.29
2022-09-12T16:08:51.543Z,42.16
2022-09-12T16:11:20.912Z,42.33
2022-09-12T16:13:48.962Z,41.98
2022-09-12T16:16:17.106Z,42.12
2022-09-12T16:18:46.446Z,41.90
2022-09-12T16:21:15.733Z,41.69
2022-09-12T16:23:44.147Z,42.05
2022-09-12T16:26:12.102Z,41.94
2022-09-12T16:28:40.243Z,41.64
2022-09-12T16:31:08.933Z,41.57
2022-09-12T16:33:38.323Z,41.86
2022-09-12T16:36:09.331Z,41.78
2022-09-12T16:38:41.813Z,41.55
2022-09-12T16:41:09.882Z,41.83
2022-09-12T16:43:38.196Z,41.63
2022-09-12T16:46:07.245Z,41.93
2022-09-12T16:48:35.375Z,41.89
2022-09-12T16:51:06.681Z,41.94
2022-09-12T16:53:37.050Z,42.09
2022-09-12T16:56:05.278Z,42.18
2022-09-12T16:58:33.481Z,42.17
2022-09-12T17:01:02.046Z,42.11
2022-09-12T17:03:29.996Z,41.95
2022-09-12T17:06:01.270Z,42.02
2022-09-12T17:08:29.224Z,42.08
2022-09-12T17:11:08.384Z,42.01
2022-09-12T17:13:53.276Z,42.18
2022-09-12T17:16:24.345Z,42.08
2022-09-12T17:18:53.014Z,42.00
2022-09-12T17:21:21.160Z,41.98
2022-09-12T17:23:49.212Z,42.04
2022-09-12T17:26:18.618Z,42.13
2022-09-12T17:28:47.150Z,41.97
2022-09-12T17:31:15.592Z,42.13
2022-09-12T17:33:43.867Z,42.16
2022-09-12T17:36:13.534Z,42.22
2022-09-12T17:38:41.534Z,42.38
2022-09-12T17:41:16.836Z,42.12
2022-09-12T17:43:46.460Z,42.36
2022-09-12T17:46:14.737Z,42.28
2022-09-12T17:48:42.882Z,42.31
2022-09-12T17:51:11.048Z,42.46
2022-09-12T17:53:39.098Z,42.39
2022-09-12T17:56:07.585Z,42.40
2022-09-12T17:58:35.759Z,42.48
2022-09-12T18:01:23.071Z,42.54
2022-09-12T18:03:51.963Z,42.48
2022-09-12T18:06:19.945Z,42.59
2022-09-12T18:08:47.876Z,42.59
2022-09-12T18:11:15.817Z,42.83
2022-09-12T18:13:43.896Z,42.69
2022-09-12T18:16:13.767Z,42.62
2022-09-12T18:18:41.784Z,42.65
2022-09-12T18:21:10.491Z,42.95
2022-09-12T18:23:38.570Z,42.72
2022-09-12T18:26:07.749Z,42.97
2022-09-12T18:28:35.836Z,43.00
2022-09-12T18:31:03.947Z,42.93
2022-09-12T18:33:36.047Z,43.26
2022-09-12T18:36:05.819Z,42.96
2022-09-12T18:38:33.776Z,43.19
2022-09-12T18:41:05.612Z,43.08
2022-09-12T18:43:33.563Z,42.96
2022-09-12T18:46:04.616Z,43.22
2022-09-12T18:48:34.282Z,43.08
2022-09-12T18:51:06.894Z,43.23
2022-09-12T18:53:34.911Z,43.40
2022-09-12T18:56:04.151Z,43.41
2022-09-12T18:58:32.099Z,43.46
2022-09-12T19:01:00.673Z,43.30
2022-09-12T19:03:28.744Z,43.35
2022-09-12T19:05:58.066Z,43.53
2022-09-12T19:08:25.992Z,43.45
2022-09-12T19:10:57.217Z,43.59
2022-09-12T19:13:25.151Z,43.53
2022-09-12T19:15:53.132Z,43.51
2022-09-12T19:18:21.047Z,43.46
2022-09-12T19:20:52.006Z,43.71
2022-09-12T19:23:21.396Z,43.61
2022-09-12T19:25:56.655Z,43.53
2022-09-12T19:28:24.655Z,43.82
2022-09-12T19:30:53.268Z,43.60
2022-09-12T19:33:21.215Z,43.76
2022-09-12T19:35:49.156Z,43.55
2022-09-12T19:38:17.041Z,43.56
2022-09-12T19:40:46.434Z,43.61
2022-09-12T19:43:14.460Z,43.70
2022-09-12T19:45:47.707Z,43.73
2022-09-12T19:48:15.701Z,43.86
2022-09-12T19:50:43.791Z,43.97
2022-09-12T19:53:11.729Z,43.91
2022-09-12T19:55:39.911Z,43.87
2022-09-12T19:58:09.203Z,43.79
2022-09-12T20:00:37.624Z,43.90
2022-09-12T20:03:05.936Z,43.74
2022-09-12T20:05:34.001Z,43.92
2022-09-12T20:08:02.987Z,43.97
2022-09-12T20:10:31.078Z,43.78
2022-09-12T20:12:58.985Z,43.79
2022-09-12T20:15:28.580Z,44.00
2022-09-12T20:17:56.693Z,43.92
2022-09-12T20:20:25.526Z,43.95
2022-09-12T20:22:53.562Z,43.87
2022-09-12T20:28:12.884Z,44.12
2022-09-12T20:30:42.169Z,44.13
2022-09-12T20:33:10.141Z,44.02
2022-09-12T20:35:38.211Z,44.10
2022-09-12T20:38:06.169Z,44.32
2022-09-12T20:40:34.096Z,44.10
2022-09-12T20:43:02.098Z,44.00
2022-09-12T20:45:30.295Z,44.39
2022-09-12T20:47:59.606Z,44.41
2022-09-12T20:50:27.545Z,44.26
2022-09-12T20:52:55.574Z,44.44
2022-09-12T20:55:23.593Z,44.35
2022-09-12T20:57:51.523Z,44.24
2022-09-12T21:00:19.675Z,44.31
2022-09-12T21:02:49.345Z,44.16
2022-09-12T21:05:18.747Z,44.36
2022-09-12T21:07:46.713Z,44.43
2022-09-12T21:10:14.677Z,44.42
2022-09-12T21:12:42.668Z,44.40
2022-09-12T21:15:11.180Z,44.65
2022-09-12T21:17:39.502Z,44.33
2022-09-12T21:20:11.446Z,44.23
2022-09-12T21:22:40.969Z,44.57
2022-09-12T21:25:09.644Z,44.26
2022-09-12T21:27:37.568Z,44.37
2022-09-12T21:30:06.114Z,44.37
2022-09-12T21:32:36.081Z,44.67
2022-09-12T21:35:04.291Z,44.75
2022-09-12T21:37:32.267Z,44.52
2022-09-12T21:40:01.645Z,44.33
2022-09-12T21:42:29.694Z,44.65
2022-09-12T21:44:57.554Z,44.60
2022-09-12T21:47:25.664Z,44.70
2022-09-12T21:49:55.257Z,44.90
2022-09-12T21:52:23.220Z,44.68
2022-09-12T21:54:51.145Z,44.82
2022-09-12T21:57:20.573Z,44.64
2022-09-12T21:59:48.530Z,44.59
2022-09-12T22:02:16.548Z,44.45
2022-09-12T22:04:44.688Z,44.78
2022-09-12T22:07:12.721Z,44.62
2022-09-12T22:09:40.787Z,44.65
2022-09-12T22:12:09.067Z,44.72
2022-09-12T22:14:38.856Z,44.61
2022-09-12T22:17:07.106Z,44.74
2022-09-12T22:19:35.040Z,44.79
2022-09-12T22:22:20.595Z,44.71
2022-09-12T22:24:48.553Z,44.55
2022-09-12T22:27:16.503Z,44.73
2022-09-12T22:29:46.031Z,44.66
2022-09-12T22:32:14.167Z,44.91
2022-09-12T22:34:42.137Z,44.89
2022-09-12T22:37:11.591Z,44.79
2022-09-12T22:39:39.539Z,44.91
2022-09-12T22:42:07.765Z,44.69
2022-09-12T22:44:35.721Z,45.10
2022-09-12T22:47:05.273Z,44.94
2022-09-12T22:49:33.504Z,45.12
2022-09-12T22:52:01.416Z,44.90
2022-09-12T22:54:30.091Z,44.99
2022-09-12T22:56:58.699Z,44.96
2022-09-12T22:59:26.605Z,44.87
2022-09-12T23:01:54.535Z,45.00
2022-09-12T23:04:23.831Z,44.92
2022-09-12T23:06:51.828Z,44.91
2022-09-12T23:09:19.763Z,44.90
2022-09-12T23:11:47.767Z,44.85
2022-09-12T23:14:15.688Z,45.22
2022-09-12T23:16:43.583Z,44.84
2022-09-12T23:19:11.507Z,45.16
2022-09-12T23:21:40.891Z,45.08
2022-09-12T23:24:08.865Z,44.82
2022-09-12T23:26:36.984Z,45.04
2022-09-12T23:29:05.634Z,45.08
2022-09-12T23:31:34.171Z,45.01
2022-09-12T23:34:03.068Z,45.17
2022-09-12T23:36:31.175Z,44.96
2022-09-12T23:39:00.782Z,45.00
2022-09-12T23:41:29.294Z,44.97
2022-09-12T23:43:57.181Z,44.81
2022-09-12T23:46:25.132Z,45.08
2022-09-12T23:48:53.268Z,44.96
2022-09-12T23:51:22.661Z,45.15
2022-09-12T23:53:50.612Z,44.98
2022-09-12T23:56:19.911Z,45.19
2022-09-12T23:58:47.962Z,45.16
